PRIVATE WETTERSTATION BILLIGHEIM-ALLFELD                       ZURCK
Wetterdaten: Montag, 14.03.2016
Datum Zeit Temp. A. Temp. A. min Temp. A. max Feuchte A. Luftdruck Regen Wind Richtung Richtung Sonnenschein ET Solar Taupunkt Windchill Windben Empfang
14.03.2016 00:00 0,3 C 0,2 C 0,3 C 89 % 1030,6 hPa 0,0 l/m 1,6 km/h (1 Bft) NO 45 0 min 0,000 mm 0 W/m -1,3 C 0,3 C 17,7 km/h (3 Bft) 100 %
14.03.2016 00:10 0,5 C 0,3 C 0,5 C 89 % 1030,5 hPa 0,0 l/m 3,2 km/h (1 Bft) NO 45 0 min 0,000 mm 0 W/m -1,1 C 0,5 C 9,7 km/h (2 Bft) 100 %
14.03.2016 00:20 0,7 C 0,5 C 0,7 C 88 % 1030,5 hPa 0,0 l/m 1,6 km/h (1 Bft) NO 45 0 min 0,000 mm 0 W/m -1,1 C 0,7 C 27,4 km/h (4 Bft) 100 %
14.03.2016 00:30 0,8 C 0,7 C 0,8 C 88 % 1030,3 hPa 0,0 l/m 0,0 km/h (0 Bft) O-NO 67 0 min 0,000 mm 0 W/m -1,0 C 0,8 C 14,5 km/h (3 Bft) 100 %
14.03.2016 00:40 0,8 C 0,8 C 0,8 C 88 % 1030,4 hPa 0,0 l/m 1,6 km/h (1 Bft) N-NO 22 0 min 0,000 mm 0 W/m -1,0 C 0,8 C 8,0 km/h (2 Bft) 90 %
14.03.2016 00:50 0,8 C 0,8 C 0,8 C 88 % 1030,4 hPa 0,0 l/m 0,0 km/h (0 Bft) NO 45 0 min 0,000 mm 0 W/m -1,0 C 0,8 C 8,0 km/h (2 Bft) 100 %
14.03.2016 01:00 0,8 C 0,8 C 0,8 C 88 % 1030,5 hPa 0,0 l/m 1,6 km/h (1 Bft) NO 45 0 min 0,000 mm 0 W/m -1,0 C 0,8 C 8,0 km/h (2 Bft) 100 %
14.03.2016 01:10 0,9 C 0,8 C 0,9 C 88 % 1030,6 hPa 0,0 l/m 1,6 km/h (1 Bft) NO 45 0 min 0,000 mm 0 W/m -0,9 C 0,9 C 12,9 km/h (3 Bft) 100 %
14.03.2016 01:20 0,9 C 0,9 C 0,9 C 87 % 1030,6 hPa 0,0 l/m 1,6 km/h (1 Bft) NO 45 0 min 0,000 mm 0 W/m -1,0 C 0,9 C 8,0 km/h (2 Bft) 100 %
14.03.2016 01:30 1,0 C 0,9 C 1,0 C 87 % 1030,5 hPa 0,0 l/m 1,6 km/h (1 Bft) NO 45 0 min 0,000 mm 0 W/m -0,9 C 1,0 C 8,0 km/h (2 Bft) 100 %
14.03.2016 01:40 1,0 C 1,0 C 1,0 C 87 % 1030,5 hPa 0,0 l/m 1,6 km/h (1 Bft) NO 45 0 min 0,000 mm 0 W/m -0,9 C 1,0 C 9,7 km/h (2 Bft) 100 %
14.03.2016 01:50 1,0 C 1,0 C 1,0 C 87 % 1030,5 hPa 0,0 l/m 3,2 km/h (1 Bft) NO 45 0 min 0,000 mm 0 W/m -0,9 C 1,0 C 11,3 km/h (2 Bft) 100 %
14.03.2016 02:00 1,0 C 1,0 C 1,0 C 87 % 1030,4 hPa 0,0 l/m 3,2 km/h (1 Bft) NO 45 0 min 0,000 mm 0 W/m -0,9 C 1,0 C 9,7 km/h (2 Bft) 100 %
14.03.2016 02:10 0,9 C 0,9 C 1,0 C 86 % 1030,5 hPa 0,0 l/m 3,2 km/h (1 Bft) NO 45 0 min 0,000 mm 0 W/m -1,2 C 0,9 C 16,1 km/h (3 Bft) 91 %
14.03.2016 02:20 0,9 C 0,9 C 1,0 C 86 % 1030,4 hPa 0,0 l/m 4,8 km/h (1 Bft) NO 45 0 min 0,000 mm 0 W/m -1,2 C 0,9 C 17,7 km/h (3 Bft) 100 %
14.03.2016 02:30 0,8 C 0,8 C 0,9 C 86 % 1030,1 hPa 0,0 l/m 3,2 km/h (1 Bft) NO 45 0 min 0,000 mm 0 W/m -1,3 C 0,8 C 12,9 km/h (3 Bft) 100 %
14.03.2016 02:40 0,6 C 0,6 C 0,8 C 87 % 1030,1 hPa 0,0 l/m 4,8 km/h (1 Bft) NO 45 0 min 0,000 mm 0 W/m -1,3 C 0,6 C 14,5 km/h (3 Bft) 100 %
14.03.2016 02:50 0,4 C 0,4 C 0,6 C 87 % 1030,1 hPa 0,0 l/m 3,2 km/h (1 Bft) NO 45 0 min 0,000 mm 0 W/m -1,5 C 0,4 C 14,5 km/h (3 Bft) 100 %
14.03.2016 03:00 0,3 C 0,3 C 0,4 C 87 % 1030,0 hPa 0,0 l/m 1,6 km/h (1 Bft) NO 45 0 min 0,000 mm 0 W/m -1,6 C 0,3 C 9,7 km/h (2 Bft) 100 %
14.03.2016 03:10 0,1 C 0,1 C 0,3 C 88 % 1030,0 hPa 0,0 l/m 4,8 km/h (1 Bft) NO 45 0 min 0,000 mm 0 W/m -1,6 C 0,1 C 16,1 km/h (3 Bft) 100 %
14.03.2016 03:20 0,0 C 0,0 C 0,1 C 88 % 1029,9 hPa 0,0 l/m 6,4 km/h (2 Bft) NO 45 0 min 0,000 mm 0 W/m -1,7 C 0,0 C 11,3 km/h (2 Bft) 100 %
14.03.2016 03:30 -0,2 C -0,2 C 0,0 C 88 % 1029,9 hPa 0,0 l/m 4,8 km/h (1 Bft) NO 45 0 min 0,000 mm 0 W/m -1,9 C -0,2 C 14,5 km/h (3 Bft) 100 %
14.03.2016 03:40 -0,2 C -0,2 C -0,2 C 88 % 1029,9 hPa 0,0 l/m 4,8 km/h (1 Bft) NO 45 0 min 0,000 mm 0 W/m -1,9 C -0,2 C 9,7 km/h (2 Bft) 100 %
14.03.2016 03:50 -0,3 C -0,3 C -0,2 C 89 % 1029,8 hPa 0,0 l/m 3,2 km/h (1 Bft) NO 45 0 min 0,000 mm 0 W/m -1,9 C -0,3 C 11,3 km/h (2 Bft) 100 %
14.03.2016 04:00 -0,4 C -0,4 C -0,3 C 89 % 1030,0 hPa 0,0 l/m 3,2 km/h (1 Bft) NO 45 0 min 0,000 mm 0 W/m -2,0 C -0,4 C 11,3 km/h (2 Bft) 100 %
14.03.2016 04:10 -0,3 C -0,4 C -0,3 C 89 % 1029,9 hPa 0,0 l/m 4,8 km/h (1 Bft) NO 45 0 min 0,000 mm 0 W/m -1,9 C -0,3 C 12,9 km/h (3 Bft) 100 %
14.03.2016 04:20 -0,3 C -0,3 C -0,3 C 89 % 1029,9 hPa 0,0 l/m 3,2 km/h (1 Bft) NO 45 0 min 0,000 mm 0 W/m -1,9 C -0,3 C 11,3 km/h (2 Bft) 100 %
14.03.2016 04:30 -0,3 C -0,3 C -0,3 C 89 % 1029,9 hPa 0,0 l/m 3,2 km/h (1 Bft) NO 45 0 min 0,000 mm 0 W/m -1,9 C -0,3 C 11,3 km/h (2 Bft) 100 %
14.03.2016 04:40 -0,3 C -0,3 C -0,2 C 89 % 1029,9 hPa 0,0 l/m 4,8 km/h (1 Bft) NO 45 0 min 0,000 mm 0 W/m -1,9 C -0,3 C 9,7 km/h (2 Bft) 100 %
14.03.2016 04:50 -0,2 C -0,3 C -0,2 C 89 % 1030,0 hPa 0,0 l/m 3,2 km/h (1 Bft) NO 45 0 min 0,000 mm 0 W/m -1,8 C -0,2 C 14,5 km/h (3 Bft) 99 %
14.03.2016 05:00 -0,2 C -0,3 C -0,2 C 88 % 1029,9 hPa 0,0 l/m 1,6 km/h (1 Bft) NO 45 0 min 0,000 mm 0 W/m -1,9 C -0,2 C 9,7 km/h (2 Bft) 92 %
14.03.2016 05:10 -0,3 C -0,3 C -0,3 C 88 % 1029,9 hPa 0,0 l/m 1,6 km/h (1 Bft) NO 45 0 min 0,000 mm 0 W/m -2,0 C -0,3 C 9,7 km/h (2 Bft) 100 %
14.03.2016 05:20 -0,3 C -0,3 C -0,3 C 89 % 1030,0 hPa 0,0 l/m 4,8 km/h (1 Bft) NO 45 0 min 0,000 mm 0 W/m -1,9 C -0,3 C 11,3 km/h (2 Bft) 100 %
14.03.2016 05:30 -0,3 C -0,3 C -0,3 C 88 % 1029,9 hPa 0,0 l/m 1,6 km/h (1 Bft) NO 45 0 min 0,000 mm 0 W/m -2,0 C -0,3 C 8,0 km/h (2 Bft) 100 %
14.03.2016 05:40 -0,3 C -0,3 C -0,3 C 88 % 1029,9 hPa 0,0 l/m 1,6 km/h (1 Bft) NO 45 0 min 0,000 mm 0 W/m -2,0 C -0,3 C 8,0 km/h (2 Bft) 100 %
14.03.2016 05:50 -0,2 C -0,3 C -0,2 C 88 % 1030,0 hPa 0,0 l/m 1,6 km/h (1 Bft) NO 45 0 min 0,000 mm 0 W/m -1,9 C -0,2 C 6,4 km/h (2 Bft) 100 %
14.03.2016 06:00 0,0 C -0,2 C 0,0 C 88 % 1030,1 hPa 0,0 l/m 1,6 km/h (1 Bft) NO 45 0 min 0,000 mm 0 W/m -1,7 C 0,0 C 9,7 km/h (2 Bft) 100 %
14.03.2016 06:10 0,1 C 0,0 C 0,1 C 88 % 1030,1 hPa 0,0 l/m 1,6 km/h (1 Bft) NO 45 0 min 0,000 mm 0 W/m -1,6 C 0,1 C 8,0 km/h (2 Bft) 90 %
14.03.2016 06:20 0,2 C 0,1 C 0,2 C 87 % 1030,3 hPa 0,0 l/m 1,6 km/h (1 Bft) NO 45 0 min 0,000 mm 0 W/m -1,7 C 0,2 C 9,7 km/h (2 Bft) 100 %
14.03.2016 06:30 0,1 C 0,1 C 0,2 C 86 % 1030,4 hPa 0,0 l/m 1,6 km/h (1 Bft) NO 45 0 min 0,000 mm 0 W/m -2,0 C 0,1 C 8,0 km/h (2 Bft) 100 %
14.03.2016 06:40 -0,1 C -0,1 C 0,1 C 86 % 1030,4 hPa 0,0 l/m 1,6 km/h (1 Bft) NO 45 0 min 0,000 mm 0 W/m -2,2 C -0,1 C 6,4 km/h (2 Bft) 100 %
14.03.2016 06:50 -0,2 C -0,2 C -0,1 C 87 % 1030,5 hPa 0,0 l/m 1,6 km/h (1 Bft) NO 45 0 min 0,000 mm 11 W/m -2,1 C -0,2 C 6,4 km/h (2 Bft) 100 %
14.03.2016 07:00 -0,2 C -0,2 C -0,2 C 87 % 1030,4 hPa 0,0 l/m 1,6 km/h (1 Bft) NO 45 0 min 0,000 mm 16 W/m -2,1 C -0,2 C 9,7 km/h (2 Bft) 100 %
14.03.2016 07:10 -0,2 C -0,3 C -0,2 C 86 % 1030,5 hPa 0,0 l/m 3,2 km/h (1 Bft) NO 45 0 min 0,000 mm 21 W/m -2,3 C -0,2 C 11,3 km/h (2 Bft) 100 %
14.03.2016 07:20 -0,3 C -0,3 C -0,2 C 86 % 1030,6 hPa 0,0 l/m 3,2 km/h (1 Bft) NO 45 0 min 0,000 mm 28 W/m -2,3 C -0,3 C 9,7 km/h (2 Bft) 100 %
14.03.2016 07:30 -0,2 C -0,3 C -0,2 C 86 % 1030,6 hPa 0,0 l/m 3,2 km/h (1 Bft) NO 45 0 min 0,000 mm 37 W/m -2,3 C -0,2 C 9,7 km/h (2 Bft) 100 %
14.03.2016 07:40 -0,2 C -0,2 C -0,2 C 85 % 1030,7 hPa 0,0 l/m 1,6 km/h (1 Bft) NO 45 0 min 0,000 mm 49 W/m -2,4 C -0,2 C 8,0 km/h (2 Bft) 100 %
14.03.2016 07:50 -0,2 C -0,2 C -0,2 C 85 % 1030,6 hPa 0,0 l/m 1,6 km/h (1 Bft) NO 45 0 min 0,000 mm 40 W/m -2,4 C -0,2 C 6,4 km/h (2 Bft) 100 %
14.03.2016 08:00 0,0 C -0,2 C 0,0 C 85 % 1030,6 hPa 0,0 l/m 1,6 km/h (1 Bft) NO 45 10 min 0,025 mm 167 W/m -2,2 C 0,0 C 8,0 km/h (2 Bft) 100 %
14.03.2016 08:10 0,6 C 0,0 C 0,6 C 83 % 1030,7 hPa 0,0 l/m 1,6 km/h (1 Bft) NO 45 10 min 0,000 mm 193 W/m -1,9 C 0,6 C 8,0 km/h (2 Bft) 100 %
14.03.2016 08:20 1,1 C 0,6 C 1,1 C 82 % 1030,6 hPa 0,0 l/m 1,6 km/h (1 Bft) NO 45 10 min 0,000 mm 220 W/m -1,6 C 1,1 C 11,3 km/h (2 Bft) 100 %
14.03.2016 08:30 1,4 C 1,1 C 1,4 C 80 % 1030,6 hPa 0,0 l/m 3,2 km/h (1 Bft) NO 45 10 min 0,000 mm 250 W/m -1,7 C 1,4 C 9,7 km/h (2 Bft) 100 %
14.03.2016 08:40 1,7 C 1,4 C 1,7 C 79 % 1030,6 hPa 0,0 l/m 3,2 km/h (1 Bft) NO 45 10 min 0,000 mm 276 W/m -1,5 C 1,7 C 16,1 km/h (3 Bft) 100 %
14.03.2016 08:50 2,0 C 1,7 C 2,0 C 77 % 1030,7 hPa 0,0 l/m 4,8 km/h (1 Bft) NO 45 10 min 0,000 mm 302 W/m -1,6 C 2,0 C 16,1 km/h (3 Bft) 100 %
14.03.2016 09:00 2,3 C 2,0 C 2,3 C 77 % 1030,7 hPa 0,0 l/m 3,2 km/h (1 Bft) NO 45 10 min 0,102 mm 329 W/m -1,3 C 2,3 C 14,5 km/h (3 Bft) 100 %
14.03.2016 09:10 2,6 C 2,3 C 2,6 C 74 % 1030,6 hPa 0,0 l/m 3,2 km/h (1 Bft) NO 45 10 min 0,000 mm 355 W/m -1,6 C 2,6 C 14,5 km/h (3 Bft) 100 %
14.03.2016 09:20 2,8 C 2,6 C 2,8 C 74 % 1030,6 hPa 0,0 l/m 3,2 km/h (1 Bft) NO 45 10 min 0,000 mm 380 W/m -1,4 C 2,8 C 16,1 km/h (3 Bft) 100 %
14.03.2016 09:30 3,1 C 2,8 C 3,1 C 73 % 1030,5 hPa 0,0 l/m 3,2 km/h (1 Bft) NO 45 10 min 0,000 mm 403 W/m -1,3 C 3,1 C 16,1 km/h (3 Bft) 100 %
14.03.2016 09:40 3,3 C 3,1 C 3,3 C 73 % 1030,5 hPa 0,0 l/m 3,2 km/h (1 Bft) NO 45 10 min 0,000 mm 429 W/m -1,1 C 3,3 C 11,3 km/h (2 Bft) 100 %
14.03.2016 09:50 3,8 C 3,3 C 3,8 C 70 % 1030,4 hPa 0,0 l/m 1,6 km/h (1 Bft) NO 45 10 min 0,000 mm 450 W/m -1,2 C 3,8 C 11,3 km/h (2 Bft) 100 %
14.03.2016 10:00 3,9 C 3,9 C 3,9 C 69 % 1030,3 hPa 0,0 l/m 6,4 km/h (2 Bft) NO 45 10 min 0,152 mm 471 W/m -1,3 C 3,9 C 16,1 km/h (3 Bft) 100 %
14.03.2016 10:10 4,2 C 3,9 C 4,2 C 70 % 1030,3 hPa 0,0 l/m 4,8 km/h (1 Bft) NO 34 10 min 0,000 mm 489 W/m -0,8 C 4,2 C 11,3 km/h (2 Bft) 98 %
14.03.2016 10:21 4,4 C 4,2 C 4,4 C 68 % 1030,2 hPa 0,0 l/m 4,4 km/h (1 Bft) O-NO 57 11 min 0,000 mm 513 W/m -1,0 C 4,4 C 16,1 km/h (3 Bft) 100 %
14.03.2016 10:32 4,5 C 4,4 C 4,5 C 68 % 1030,2 hPa 0,0 l/m 6,1 km/h (2 Bft) O-NO 59 11 min 0,000 mm 526 W/m -0,9 C 4,5 C 16,1 km/h (3 Bft) 100 %
14.03.2016 10:40 4,7 C 4,5 C 4,7 C 67 % 1030,3 hPa 0,0 l/m 5,1 km/h (1 Bft) O-NO 65 8 min 0,000 mm 534 W/m -0,9 C 4,7 C 17,7 km/h (3 Bft) 100 %
14.03.2016 10:50 5,1 C 4,7 C 5,1 C 67 % 1030,1 hPa 0,0 l/m 3,7 km/h (1 Bft) NO 46 10 min 0,000 mm 554 W/m -0,5 C 5,1 C 14,5 km/h (3 Bft) 100 %
14.03.2016 11:00 5,3 C 5,1 C 5,3 C 67 % 1030,1 hPa 0,0 l/m 5,4 km/h (1 Bft) N-NO 32 10 min 0,229 mm 573 W/m -0,3 C 5,3 C 14,5 km/h (3 Bft) 99 %
14.03.2016 11:10 5,5 C 5,3 C 5,5 C 66 % 1029,8 hPa 0,0 l/m 5,5 km/h (1 Bft) NO 39 10 min 0,000 mm 570 W/m -0,3 C 5,5 C 14,5 km/h (3 Bft) 100 %
14.03.2016 11:20 5,7 C 5,5 C 5,7 C 65 % 1029,8 hPa 0,0 l/m 4,7 km/h (1 Bft) N-NO 28 10 min 0,000 mm 582 W/m -0,4 C 5,7 C 12,9 km/h (3 Bft) 100 %
14.03.2016 11:30 5,9 C 5,7 C 5,9 C 64 % 1029,6 hPa 0,0 l/m 6,1 km/h (2 Bft) N-NO 33 10 min 0,000 mm 603 W/m -0,4 C 5,9 C 16,1 km/h (3 Bft) 100 %
14.03.2016 11:40 6,2 C 5,9 C 6,2 C 64 % 1029,7 hPa 0,0 l/m 4,4 km/h (1 Bft) NO 47 10 min 0,000 mm 599 W/m -0,1 C 6,2 C 14,5 km/h (3 Bft) 100 %
14.03.2016 11:50 6,7 C 6,2 C 6,7 C 62 % 1029,6 hPa 0,0 l/m 2,4 km/h (1 Bft) NO 45 10 min 0,000 mm 610 W/m -0,1 C 6,7 C 11,3 km/h (2 Bft) 100 %
14.03.2016 12:00 6,8 C 6,7 C 6,9 C 62 % 1029,5 hPa 0,0 l/m 5,9 km/h (2 Bft) NO 36 10 min 0,254 mm 629 W/m 0,0 C 6,8 C 17,7 km/h (3 Bft) 100 %
14.03.2016 12:10 6,9 C 6,8 C 6,9 C 61 % 1029,4 hPa 0,0 l/m 6,2 km/h (2 Bft) NO 44 10 min 0,000 mm 626 W/m -0,1 C 6,9 C 22,5 km/h (4 Bft) 100 %
14.03.2016 12:20 7,1 C 6,9 C 7,1 C 61 % 1029,3 hPa 0,0 l/m 5,3 km/h (1 Bft) O 83 10 min 0,000 mm 629 W/m 0,1 C 7,1 C 20,9 km/h (4 Bft) 100 %
14.03.2016 12:30 7,1 C 7,1 C 7,1 C 62 % 1029,1 hPa 0,0 l/m 5,7 km/h (1 Bft) NO 45 10 min 0,000 mm 622 W/m 0,3 C 7,1 C 17,7 km/h (3 Bft) 100 %
14.03.2016 12:40 7,3 C 7,1 C 7,3 C 61 % 1029,1 hPa 0,0 l/m 5,2 km/h (1 Bft) NO 52 10 min 0,000 mm 615 W/m 0,3 C 7,3 C 20,9 km/h (4 Bft) 100 %
14.03.2016 12:50 7,8 C 7,3 C 7,8 C 59 % 1029,0 hPa 0,0 l/m 5,4 km/h (1 Bft) NO 45 10 min 0,000 mm 629 W/m 0,3 C 7,8 C 14,5 km/h (3 Bft) 100 %
14.03.2016 13:00 7,7 C 7,7 C 7,8 C 60 % 1028,9 hPa 0,0 l/m 6,0 km/h (2 Bft) NO 36 10 min 0,279 mm 612 W/m 0,4 C 7,7 C 17,7 km/h (3 Bft) 91 %
14.03.2016 13:10 8,1 C 7,7 C 8,1 C 59 % 1028,8 hPa 0,0 l/m 1,9 km/h (1 Bft) NO 36 10 min 0,000 mm 619 W/m 0,6 C 8,1 C 14,5 km/h (3 Bft) 100 %
14.03.2016 13:20 8,1 C 8,1 C 8,1 C 56 % 1028,8 hPa 0,0 l/m 4,5 km/h (1 Bft) O-SO 111 10 min 0,000 mm 628 W/m -0,1 C 8,1 C 19,3 km/h (3 Bft) 100 %
14.03.2016 13:30 8,3 C 8,1 C 8,3 C 58 % 1028,7 hPa 0,0 l/m 1,6 km/h (1 Bft) N-NO 23 10 min 0,000 mm 599 W/m 0,5 C 8,3 C 11,3 km/h (2 Bft) 100 %
14.03.2016 13:40 8,4 C 8,3 C 8,4 C 58 % 1028,5 hPa 0,0 l/m 3,3 km/h (1 Bft) NO 38 10 min 0,000 mm 587 W/m 0,6 C 8,4 C 14,5 km/h (3 Bft) 100 %
14.03.2016 13:50 8,7 C 8,4 C 8,7 C 56 % 1028,5 hPa 0,0 l/m 3,4 km/h (1 Bft) NO 49 10 min 0,000 mm 550 W/m 0,4 C 8,7 C 16,1 km/h (3 Bft) 100 %
14.03.2016 14:00 8,8 C 8,7 C 8,8 C 55 % 1028,4 hPa 0,0 l/m 2,5 km/h (1 Bft) NO 39 10 min 0,254 mm 552 W/m 0,3 C 8,8 C 11,3 km/h (2 Bft) 100 %
14.03.2016 14:10 8,8 C 8,7 C 8,9 C 54 % 1028,3 hPa 0,0 l/m 4,6 km/h (1 Bft) NO 55 10 min 0,000 mm 555 W/m 0,0 C 8,8 C 16,1 km/h (3 Bft) 100 %
14.03.2016 14:20 8,9 C 8,8 C 8,9 C 55 % 1028,2 hPa 0,0 l/m 2,6 km/h (1 Bft) O-NO 77 10 min 0,000 mm 533 W/m 0,4 C 8,9 C 14,5 km/h (3 Bft) 100 %
14.03.2016 14:30 9,1 C 8,9 C 9,1 C 53 % 1028,0 hPa 0,0 l/m 2,6 km/h (1 Bft) N-NO 22 10 min 0,000 mm 531 W/m 0,0 C 9,1 C 14,5 km/h (3 Bft) 100 %
14.03.2016 14:40 9,2 C 9,1 C 9,2 C 52 % 1027,9 hPa 0,0 l/m 4,5 km/h (1 Bft) O 94 10 min 0,000 mm 462 W/m -0,1 C 9,2 C 17,7 km/h (3 Bft) 100 %
14.03.2016 14:50 9,1 C 9,1 C 9,2 C 51 % 1027,8 hPa 0,0 l/m 3,9 km/h (1 Bft) NO 40 10 min 0,000 mm 362 W/m -0,5 C 9,1 C 19,3 km/h (3 Bft) 100 %
14.03.2016 15:00 9,1 C 9,0 C 9,1 C 52 % 1027,6 hPa 0,0 l/m 2,9 km/h (1 Bft) N-NO 30 10 min 0,229 mm 232 W/m -0,2 C 9,1 C 14,5 km/h (3 Bft) 100 %
14.03.2016 15:10 9,0 C 9,0 C 9,2 C 52 % 1027,4 hPa 0,0 l/m 5,8 km/h (2 Bft) N-NO 32 10 min 0,000 mm 183 W/m -0,3 C 9,0 C 20,9 km/h (4 Bft) 100 %
14.03.2016 15:20 9,0 C 8,9 C 9,0 C 52 % 1027,4 hPa 0,0 l/m 4,1 km/h (1 Bft) NO 48 0 min 0,000 mm 83 W/m -0,3 C 9,0 C 19,3 km/h (3 Bft) 100 %
14.03.2016 15:30 9,2 C 9,0 C 9,2 C 51 % 1027,5 hPa 0,0 l/m 3,4 km/h (1 Bft) NO 45 0 min 0,000 mm 91 W/m -0,4 C 9,2 C 16,1 km/h (3 Bft) 100 %
14.03.2016 15:40 9,3 C 9,2 C 9,3 C 52 % 1027,3 hPa 0,0 l/m 1,7 km/h (1 Bft) NO 41 0 min 0,000 mm 77 W/m -0,0 C 9,3 C 9,7 km/h (2 Bft) 99 %
14.03.2016 15:50 8,9 C 8,9 C 9,3 C 52 % 1027,2 hPa 0,0 l/m 5,2 km/h (1 Bft) NO 43 0 min 0,000 mm 81 W/m -0,4 C 8,9 C 14,5 km/h (3 Bft) 98 %
14.03.2016 16:00 9,1 C 8,9 C 9,1 C 51 % 1027,3 hPa 0,0 l/m 2,6 km/h (1 Bft) N-NO 25 0 min 0,076 mm 74 W/m -0,5 C 9,1 C 16,1 km/h (3 Bft) 97 %
14.03.2016 16:10 9,2 C 9,1 C 9,2 C 51 % 1027,2 hPa 0,0 l/m 2,2 km/h (1 Bft) NO 43 0 min 0,000 mm 76 W/m -0,4 C 9,2 C 11,3 km/h (2 Bft) 98 %
14.03.2016 16:20 9,2 C 9,2 C 9,3 C 48 % 1027,1 hPa 0,0 l/m 3,8 km/h (1 Bft) O-NO 69 0 min 0,000 mm 69 W/m -1,2 C 9,2 C 16,1 km/h (3 Bft) 97 %
14.03.2016 16:30 9,1 C 9,1 C 9,2 C 49 % 1027,0 hPa 0,0 l/m 2,2 km/h (1 Bft) NO 51 0 min 0,000 mm 60 W/m -1,0 C 9,1 C 19,3 km/h (3 Bft) 97 %
14.03.2016 16:40 8,8 C 8,8 C 9,1 C 51 % 1027,0 hPa 0,0 l/m 3,5 km/h (1 Bft) NO 44 0 min 0,000 mm 63 W/m -0,8 C 8,8 C 22,5 km/h (4 Bft) 98 %
14.03.2016 16:50 8,8 C 8,8 C 8,8 C 50 % 1027,0 hPa 0,0 l/m 4,2 km/h (1 Bft) NO 34 0 min 0,000 mm 67 W/m -1,0 C 8,8 C 14,5 km/h (3 Bft) 97 %
14.03.2016 17:00 8,7 C 8,7 C 8,8 C 50 % 1027,0 hPa 0,0 l/m 1,1 km/h (1 Bft) O-NO 63 0 min 0,051 mm 54 W/m -1,1 C 8,7 C 14,5 km/h (3 Bft) 98 %
14.03.2016 17:10 8,7 C 8,7 C 8,8 C 50 % 1027,1 hPa 0,0 l/m 0,7 km/h (0 Bft) NO 44 0 min 0,000 mm 44 W/m -1,1 C 8,7 C 9,7 km/h (2 Bft) 97 %
14.03.2016 17:20 8,6 C 8,6 C 8,7 C 50 % 1027,0 hPa 0,0 l/m 0,8 km/h (0 Bft) O 86 0 min 0,000 mm 33 W/m -1,2 C 8,6 C 9,7 km/h (2 Bft) 97 %
14.03.2016 17:30 8,4 C 8,4 C 8,6 C 53 % 1027,0 hPa 0,0 l/m 0,6 km/h (0 Bft) O-NO 77 0 min 0,000 mm 30 W/m -0,6 C 8,4 C 9,7 km/h (2 Bft) 98 %
14.03.2016 17:40 8,2 C 8,2 C 8,4 C 53 % 1026,9 hPa 0,0 l/m 0,4 km/h (0 Bft) NO 41 0 min 0,000 mm 25 W/m -0,8 C 8,2 C 8,0 km/h (2 Bft) 97 %
14.03.2016 17:50 7,9 C 7,9 C 8,2 C 56 % 1026,8 hPa 0,0 l/m 0,1 km/h (0 Bft) NO 42 0 min 0,000 mm 21 W/m -0,3 C 7,9 C 3,2 km/h (1 Bft) 98 %
14.03.2016 18:00 7,5 C 7,5 C 7,9 C 57 % 1026,9 hPa 0,0 l/m 1,1 km/h (1 Bft) NO 36 0 min 0,025 mm 18 W/m -0,5 C 7,5 C 9,7 km/h (2 Bft) 97 %
14.03.2016 18:10 7,2 C 7,2 C 7,5 C 58 % 1027,0 hPa 0,0 l/m 1,8 km/h (1 Bft) NO 42 0 min 0,000 mm 12 W/m -0,5 C 7,2 C 8,0 km/h (2 Bft) 98 %
14.03.2016 18:20 6,8 C 6,8 C 7,2 C 60 % 1026,9 hPa 0,0 l/m 1,3 km/h (1 Bft) NO 38 0 min 0,000 mm 5 W/m -0,4 C 6,8 C 6,4 km/h (2 Bft) 97 %
14.03.2016 18:30 6,3 C 6,3 C 6,8 C 61 % 1026,9 hPa 0,0 l/m 0,8 km/h (0 Bft) NO 38 0 min 0,000 mm 0 W/m -0,7 C 6,3 C 6,4 km/h (2 Bft) 97 %
14.03.2016 18:40 5,9 C 5,9 C 6,3 C 63 % 1027,0 hPa 0,0 l/m 1,4 km/h (1 Bft) NO 38 0 min 0,000 mm 0 W/m -0,6 C 5,9 C 4,8 km/h (1 Bft) 98 %
14.03.2016 18:50 5,5 C 5,5 C 5,9 C 64 % 1027,0 hPa 0,0 l/m 1,5 km/h (1 Bft) NO 35 0 min 0,000 mm 0 W/m -0,8 C 5,5 C 4,8 km/h (1 Bft) 97 %
14.03.2016 19:00 5,3 C 5,3 C 5,5 C 65 % 1027,1 hPa 0,0 l/m 1,5 km/h (1 Bft) NO 36 0 min 0,000 mm 0 W/m -0,7 C 5,3 C 4,8 km/h (1 Bft) 98 %
14.03.2016 19:10 5,2 C 5,2 C 5,3 C 65 % 1027,2 hPa 0,0 l/m 0,3 km/h (0 Bft) NO 36 0 min 0,000 mm 0 W/m -0,8 C 5,2 C 4,8 km/h (1 Bft) 97 %
14.03.2016 19:20 5,1 C 5,1 C 5,2 C 66 % 1027,2 hPa 0,0 l/m 1,5 km/h (1 Bft) NO 34 0 min 0,000 mm 0 W/m -0,7 C 5,1 C 8,0 km/h (2 Bft) 97 %
14.03.2016 19:30 5,1 C 5,1 C 5,1 C 66 % 1027,2 hPa 0,0 l/m 2,4 km/h (1 Bft) NO 40 0 min 0,000 mm 0 W/m -0,7 C 5,1 C 9,7 km/h (2 Bft) 98 %
14.03.2016 19:40 4,9 C 4,9 C 5,1 C 67 % 1027,3 hPa 0,0 l/m 0,1 km/h (0 Bft) NO 39 0 min 0,000 mm 0 W/m -0,7 C 4,9 C 3,2 km/h (1 Bft) 97 %
14.03.2016 19:50 4,6 C 4,6 C 4,9 C 69 % 1027,1 hPa 0,0 l/m 0,5 km/h (0 Bft) NO 40 0 min 0,000 mm 0 W/m -0,6 C 4,6 C 8,0 km/h (2 Bft) 98 %
14.03.2016 20:00 4,3 C 4,3 C 4,6 C 70 % 1027,1 hPa 0,0 l/m 0,7 km/h (0 Bft) NO 38 0 min 0,026 mm 0 W/m -0,7 C 4,3 C 6,4 km/h (2 Bft) 97 %
14.03.2016 20:10 4,1 C 4,1 C 4,3 C 71 % 1027,1 hPa 0,0 l/m 0,0 km/h (0 Bft) NO 37 0 min 0,000 mm 0 W/m -0,7 C 4,1 C 1,6 km/h (1 Bft) 98 %
14.03.2016 20:20 3,7 C 3,7 C 4,1 C 72 % 1027,0 hPa 0,0 l/m 0,0 km/h (0 Bft) NO 37 0 min 0,000 mm 0 W/m -0,9 C 3,7 C 1,6 km/h (1 Bft) 97 %
14.03.2016 20:30 3,4 C 3,4 C 3,7 C 73 % 1027,0 hPa 0,0 l/m 0,0 km/h (0 Bft) NO 37 0 min 0,000 mm 0 W/m -1,0 C 3,4 C 1,6 km/h (1 Bft) 97 %
14.03.2016 20:40 3,2 C 3,2 C 3,4 C 74 % 1027,0 hPa 0,0 l/m 0,0 km/h (0 Bft) NO 37 0 min 0,000 mm 0 W/m -1,0 C 3,2 C 0,0 km/h (0 Bft) 98 %
14.03.2016 20:50 3,0 C 3,0 C 3,2 C 74 % 1027,0 hPa 0,0 l/m 0,3 km/h (0 Bft) NO 38 0 min 0,000 mm 0 W/m -1,2 C 3,0 C 8,0 km/h (2 Bft) 98 %
14.03.2016 21:00 2,9 C 2,9 C 3,0 C 75 % 1026,9 hPa 0,0 l/m 0,0 km/h (0 Bft) NO 35 0 min 0,000 mm 0 W/m -1,1 C 2,9 C 1,6 km/h (1 Bft) 97 %
14.03.2016 21:10 2,8 C 2,8 C 2,9 C 75 % 1027,0 hPa 0,0 l/m 0,0 km/h (0 Bft) NO 45 0 min 0,000 mm 0 W/m -1,2 C 2,8 C 1,6 km/h (1 Bft) 100 %
14.03.2016 21:20 2,7 C 2,7 C 2,8 C 76 % 1026,9 hPa 0,0 l/m 0,0 km/h (0 Bft) NO 45 0 min 0,000 mm 0 W/m -1,1 C 2,7 C 1,6 km/h (1 Bft) 100 %
14.03.2016 21:30 2,4 C 2,4 C 2,7 C 76 % 1026,9 hPa 0,0 l/m 0,0 km/h (0 Bft) N 0 0 min 0,000 mm 0 W/m -1,4 C 2,4 C 0,0 km/h (0 Bft) 100 %
14.03.2016 21:40 2,3 C 2,3 C 2,4 C 77 % 1027,0 hPa 0,0 l/m 0,0 km/h (0 Bft) NO 45 0 min 0,000 mm 0 W/m -1,3 C 2,3 C 1,6 km/h (1 Bft) 100 %
14.03.2016 21:50 2,2 C 2,1 C 2,3 C 77 % 1026,9 hPa 0,0 l/m 0,0 km/h (0 Bft) N-NO 22 0 min 0,000 mm 0 W/m -1,4 C 2,2 C 1,6 km/h (1 Bft) 100 %
14.03.2016 22:00 2,0 C 2,0 C 2,1 C 78 % 1026,9 hPa 0,0 l/m 0,0 km/h (0 Bft) N-NO 22 0 min 0,000 mm 0 W/m -1,4 C 2,0 C 3,2 km/h (1 Bft) 100 %
14.03.2016 22:10 1,9 C 1,8 C 2,0 C 79 % 1026,8 hPa 0,0 l/m 0,0 km/h (0 Bft) N-NO 22 0 min 0,000 mm 0 W/m -1,3 C 1,9 C 3,2 km/h (1 Bft) 100 %
14.03.2016 22:20 1,6 C 1,6 C 1,8 C 79 % 1026,9 hPa 0,0 l/m 0,0 km/h (0 Bft) N-NO 22 0 min 0,000 mm 0 W/m -1,6 C 1,6 C 1,6 km/h (1 Bft) 100 %
14.03.2016 22:30 1,4 C 1,4 C 1,6 C 80 % 1027,0 hPa 0,0 l/m 0,0 km/h (0 Bft) N 0 0 min 0,000 mm 0 W/m -1,7 C 1,4 C 0,0 km/h (0 Bft) 100 %
14.03.2016 22:40 1,4 C 1,4 C 1,4 C 81 % 1026,9 hPa 0,0 l/m 0,0 km/h (0 Bft) N 0 0 min 0,000 mm 0 W/m -1,5 C 1,4 C 0,0 km/h (0 Bft) 100 %
14.03.2016 22:50 1,2 C 1,1 C 1,4 C 81 % 1026,8 hPa 0,0 l/m 0,0 km/h (0 Bft) N 0 0 min 0,000 mm 0 W/m -1,7 C 1,2 C 0,0 km/h (0 Bft) 100 %
14.03.2016 23:00 1,0 C 1,0 C 1,2 C 82 % 1026,7 hPa 0,0 l/m 1,6 km/h (1 Bft) N-NO 22 0 min 0,000 mm 0 W/m -1,7 C 1,0 C 4,8 km/h (1 Bft) 99 %
14.03.2016 23:10 1,3 C 0,9 C 1,3 C 82 % 1026,6 hPa 0,0 l/m 3,2 km/h (1 Bft) NO 45 0 min 0,000 mm 0 W/m -1,4 C 1,3 C 6,4 km/h (2 Bft) 100 %
14.03.2016 23:20 1,6 C 1,3 C 1,6 C 81 % 1026,7 hPa 0,0 l/m 3,2 km/h (1 Bft) NO 45 0 min 0,000 mm 0 W/m -1,3 C 1,6 C 6,4 km/h (2 Bft) 100 %
14.03.2016 23:30 1,8 C 1,6 C 1,8 C 80 % 1026,7 hPa 0,0 l/m 3,2 km/h (1 Bft) NO 45 0 min 0,000 mm 0 W/m -1,3 C 1,8 C 8,0 km/h (2 Bft) 100 %
14.03.2016 23:40 1,7 C 1,7 C 1,8 C 80 % 1026,6 hPa 0,0 l/m 1,6 km/h (1 Bft) NO 45 0 min 0,000 mm 0 W/m -1,4 C 1,7 C 6,4 km/h (2 Bft) 99 %
14.03.2016 23:50 1,4 C 1,4 C 1,7 C 81 % 1026,7 hPa 0,0 l/m 1,6 km/h (1 Bft) NO 45 0 min 0,000 mm 0 W/m -1,5 C 1,4 C 4,8 km/h (1 Bft) 100 %
_ Min-Zeit 04:00 04:00 04:00 16:20 23:10 - 00:30 - - - - - 07:40 04:00 20:40 00:40
Minimum _ -0,4 C -0,4 C -0,3 C 48 % 1026,6 hPa - 0,0 km/h (0 Bft) - - - - - -2,4 C -0,4 C 0,0 km/h (0 Bft) 90 %
_ Max-Zeit 15:40 15:40 15:40 00:00 07:40 00:00 03:20 - - 10:21 13:00 12:00 13:40 15:40 00:20 00:00
Maximum _ 9,3 C 9,2 C 9,3 C 89 % 1030,7 hPa 0,0 l/m 6,4 km/h
NO (2 Bft)
- - 11 min 0,279 mm 629 W/m 0,6 C 9,3 C 27,4 km/h
N (4 Bft)
100 %
Durchschnitt _ 3,7 C 3,6 C 3,7 C 73 % 1028,8 hPa #0,0 l/m 2,6 km/h (1 Bft) NO - #7:20 h #1,702 mm 319 W/m -1,0 C 3,7 C 10,8 km/h (2 Bft) 99 %
PRIVATE WETTERSTATION BILLIGHEIM-ALLFELD - www.neckar-odenwald-wetter.de - Holger Sonntag